sensor_id;sensor_type;location;lat;lon;timestamp;pressure;altitude;pressure_sealevel;temperature;humidity
49813;BME280;35706;52.100;5.056;2023-04-01T00:00:59;98979.16;;;9.94;100.00
49813;BME280;35706;52.100;5.056;2023-04-01T00:02:00;98989.66;;;9.94;100.00
49813;BME280;35706;52.100;5.056;2023-04-01T00:03:00;98984.25;;;9.95;100.00
49813;BME280;35706;52.100;5.056;2023-04-01T00:04:01;98984.41;;;9.94;100.00
49813;BME280;35706;52.100;5.056;2023-04-01T00:05:02;98979.22;;;9.86;100.00
49813;BME280;35706;52.100;5.056;2023-04-01T00:06:02;98973.00;;;9.87;100.00
49813;BME280;35706;52.100;5.056;2023-04-01T00:07:03;98976.19;;;9.97;100.00
49813;BME280;35706;52.100;5.056;2023-04-01T00:08:03;98979.81;;;9.96;100.00
49813;BME280;35706;52.100;5.056;2023-04-01T00:09:03;98987.56;;;9.89;100.00
49813;BME280;35706;52.100;5.056;2023-04-01T00:10:06;98990.53;;;9.86;100.00
49813;BME280;35706;52.100;5.056;2023-04-01T00:11:07;98988.38;;;9.90;100.00
49813;BME280;35706;52.100;5.056;2023-04-01T00:12:08;98983.31;;;9.88;100.00
49813;BME280;35706;52.100;5.056;2023-04-01T00:13:08;98983.19;;;9.82;100.00
49813;BME280;35706;52.100;5.056;2023-04-01T00:14:09;98987.91;;;9.86;100.00
49813;BME280;35706;52.100;5.056;2023-04-01T00:15:11;98989.91;;;9.84;100.00
49813;BME280;35706;52.100;5.056;2023-04-01T00:16:12;98992.88;;;9.81;100.00
49813;BME280;35706;52.100;5.056;2023-04-01T00:17:13;98984.03;;;9.82;100.00
49813;BME280;35706;52.100;5.056;2023-04-01T00:18:13;98988.75;;;9.87;100.00
49813;BME280;35706;52.100;5.056;2023-04-01T00:19:14;98986.56;;;9.90;100.00
49813;BME280;35706;52.100;5.056;2023-04-01T00:20:15;98993.28;;;9.93;100.00
49813;BME280;35706;52.100;5.056;2023-04-01T00:21:16;99003.97;;;9.91;100.00
49813;BME280;35706;52.100;5.056;2023-04-01T00:22:17;98993.06;;;9.79;100.00
49813;BME280;35706;52.100;5.056;2023-04-01T00:23:18;98987.47;;;9.83;100.00
49813;BME280;35706;52.100;5.056;2023-04-01T00:24:19;98992.88;;;9.81;100.00
49813;BME280;35706;52.100;5.056;2023-04-01T00:25:19;98997.16;;;9.82;100.00
49813;BME280;35706;52.100;5.056;2023-04-01T00:26:20;99000.28;;;9.77;100.00
49813;BME280;35706;52.100;5.056;2023-04-01T00:27:21;98997.03;;;9.75;100.00
49813;BME280;35706;52.100;5.056;2023-04-01T00:28:22;98999.31;;;9.78;100.00
49813;BME280;35706;52.100;5.056;2023-04-01T00:29:22;98997.31;;;9.81;100.00
49813;BME280;35706;52.100;5.056;2023-04-01T00:30:24;98998.25;;;9.88;100.00
49813;BME280;35706;52.100;5.056;2023-04-01T00:31:24;98990.25;;;9.81;100.00
49813;BME280;35706;52.100;5.056;2023-04-01T00:32:24;98993.41;;;9.76;100.00
49813;BME280;35706;52.100;5.056;2023-04-01T00:33:29;98996.31;;;9.82;100.00
49813;BME280;35706;52.100;5.056;2023-04-01T00:34:30;98992.13;;;9.72;100.00
49813;BME280;35706;52.100;5.056;2023-04-01T00:35:30;98996.69;;;9.78;100.00
49813;BME280;35706;52.100;5.056;2023-04-01T00:36:32;98997.03;;;9.75;100.00
49813;BME280;35706;52.100;5.056;2023-04-01T00:37:35;98997.84;;;9.76;100.00
49813;BME280;35706;52.100;5.056;2023-04-01T00:38:37;99000.81;;;9.73;100.00
49813;BME280;35706;52.100;5.056;2023-04-01T00:39:38;98999.63;;;9.75;100.00
49813;BME280;35706;52.100;5.056;2023-04-01T00:40:41;99003.75;;;9.78;100.00
49813;BME280;35706;52.100;5.056;2023-04-01T00:41:42;99000.47;;;9.76;100.00
49813;BME280;35706;52.100;5.056;2023-04-01T00:42:42;99006.22;;;9.71;100.00
49813;BME280;35706;52.100;5.056;2023-04-01T00:43:45;99012.75;;;9.75;100.00
49813;BME280;35706;52.100;5.056;2023-04-01T00:44:50;99005.59;;;9.69;100.00
49813;BME280;35706;52.100;5.056;2023-04-01T00:45:51;99006.31;;;9.63;100.00
49813;BME280;35706;52.100;5.056;2023-04-01T00:46:51;99010.22;;;9.67;100.00
49813;BME280;35706;52.100;5.056;2023-04-01T00:47:56;99003.69;;;9.63;100.00
49813;BME280;35706;52.100;5.056;2023-04-01T00:48:59;99014.19;;;9.63;100.00
49813;BME280;35706;52.100;5.056;2023-04-01T00:50:01;99016.97;;;9.62;100.00
49813;BME280;35706;52.100;5.056;2023-04-01T00:51:16;99012.06;;;9.58;100.00
49813;BME280;35706;52.100;5.056;2023-04-01T00:52:19;99012.25;;;9.57;100.00
49813;BME280;35706;52.100;5.056;2023-04-01T00:53:21;99011.25;;;9.58;100.00
49813;BME280;35706;52.100;5.056;2023-04-01T00:54:24;99011.41;;;9.56;100.00
49813;BME280;35706;52.100;5.056;2023-04-01T00:55:26;99012.25;;;9.57;100.00
49813;BME280;35706;52.100;5.056;2023-04-01T00:56:32;99012.91;;;9.59;100.00
49813;BME280;35706;52.100;5.056;2023-04-01T00:57:35;99018.16;;;9.59;100.00
49813;BME280;35706;52.100;5.056;2023-04-01T00:58:41;99013.53;;;9.61;100.00
49813;BME280;35706;52.100;5.056;2023-04-01T00:59:45;99017.31;;;9.58;100.00
49813;BME280;35706;52.100;5.056;2023-04-01T01:00:48;99023.25;;;9.52;100.00
49813;BME280;35706;52.100;5.056;2023-04-01T01:01:50;99020.19;;;9.49;100.00
49813;BME280;35706;52.100;5.056;2023-04-01T01:02:51;99018.53;;;9.48;100.00
49813;BME280;35706;52.100;5.056;2023-04-01T01:03:52;99016.09;;;9.46;100.00
49813;BME280;35706;52.100;5.056;2023-04-01T01:04:52;99010.84;;;9.46;100.00
49813;BME280;35706;52.100;5.056;2023-04-01T01:06:08;99008.34;;;9.53;100.00
49813;BME280;35706;52.100;5.056;2023-04-01T01:07:40;99010.31;;;9.51;100.00
49813;BME280;35706;52.100;5.056;2023-04-01T01:10:14;99034.13;;;9.41;100.00
49813;BME280;35706;52.100;5.056;2023-04-01T01:11:22;99018.25;;;9.43;100.00
49813;BME280;35706;52.100;5.056;2023-04-01T01:12:38;99014.28;;;9.47;100.00
49813;BME280;35706;52.100;5.056;2023-04-01T01:13:49;99016.25;;;9.45;100.00
49813;BME280;35706;52.100;5.056;2023-04-01T01:15:26;99013.13;;;9.49;100.00
49813;BME280;35706;52.100;5.056;2023-04-01T01:16:34;99016.25;;;9.45;100.00
49813;BME280;35706;52.100;5.056;2023-04-01T01:21:54;99025.31;;;9.42;100.00
49813;BME280;35706;52.100;5.056;2023-04-01T01:24:12;99021.84;;;9.42;100.00
49813;BME280;35706;52.100;5.056;2023-04-01T01:25:28;99024.78;;;9.47;100.00
49813;BME280;35706;52.100;5.056;2023-04-01T01:27:54;99025.34;;;9.34;100.00
49813;BME280;35706;52.100;5.056;2023-04-01T01:33:13;99024.47;;;9.42;100.00
49813;BME280;35706;52.100;5.056;2023-04-01T01:34:33;99021.84;;;9.42;100.00
49813;BME280;35706;52.100;5.056;2023-04-01T01:36:48;99026.00;;;9.36;100.00
49813;BME280;35706;52.100;5.056;2023-04-01T01:37:56;99025.16;;;9.35;100.00
49813;BME280;35706;52.100;5.056;2023-04-01T01:39:01;99020.91;;;9.34;100.00
49813;BME280;35706;52.100;5.056;2023-04-01T01:40:05;99027.44;;;9.38;100.00
49813;BME280;35706;52.100;5.056;2023-04-01T01:41:07;99024.97;;;9.37;100.00
49813;BME280;35706;52.100;5.056;2023-04-01T01:42:12;99025.31;;;9.42;100.00
49813;BME280;35706;52.100;5.056;2023-04-01T01:43:18;99028.25;;;9.39;100.00
49813;BME280;35706;52.100;5.056;2023-04-01T01:44:20;99026.44;;;9.40;100.00
49813;BME280;35706;52.100;5.056;2023-04-01T01:45:23;99028.41;;;9.37;100.00
49813;BME280;35706;52.100;5.056;2023-04-01T01:46:27;99028.63;;;9.36;100.00
49813;BME280;35706;52.100;5.056;2023-04-01T01:47:29;99021.28;;;9.31;100.00
49813;BME280;35706;52.100;5.056;2023-04-01T01:48:31;99035.03;;;9.33;100.00
49813;BME280;35706;52.100;5.056;2023-04-01T01:49:33;99025.78;;;9.37;100.00
49813;BME280;35706;52.100;5.056;2023-04-01T01:50:36;99027.16;;;9.33;100.00
49813;BME280;35706;52.100;5.056;2023-04-01T01:51:37;99030.75;;;9.32;100.00
49813;BME280;35706;52.100;5.056;2023-04-01T01:52:39;99033.72;;;9.29;100.00
49813;BME280;35706;52.100;5.056;2023-04-01T01:53:39;99033.72;;;9.29;100.00
49813;BME280;35706;52.100;5.056;2023-04-01T01:54:54;99029.41;;;9.36;100.00
49813;BME280;35706;52.100;5.056;2023-04-01T01:55:54;99037.00;;;9.31;100.00
49813;BME280;35706;52.100;5.056;2023-04-01T01:57:09;99030.22;;;9.37;100.00
49813;BME280;35706;52.100;5.056;2023-04-01T01:58:15;99041.53;;;9.37;100.00
49813;BME280;35706;52.100;5.056;2023-04-01T01:59:20;99041.25;;;9.32;100.00
49813;BME280;35706;52.100;5.056;2023-04-01T02:00:21;99043.84;;;9.32;100.00
49813;BME280;35706;52.100;5.056;2023-04-01T02:01:27;99043.22;;;9.30;100.00
49813;BME280;35706;52.100;5.056;2023-04-01T02:02:30;99042.25;;;9.31;100.00
49813;BME280;35706;52.100;5.056;2023-04-01T02:03:35;99036.81;;;9.33;100.00
49813;BME280;35706;52.100;5.056;2023-04-01T02:04:41;99047.50;;;9.31;100.00
49813;BME280;35706;52.100;5.056;2023-04-01T02:05:44;99041.41;;;9.31;100.00
49813;BME280;35706;52.100;5.056;2023-04-01T02:06:50;99038.25;;;9.35;100.00
49813;BME280;35706;52.100;5.056;2023-04-01T02:09:03;99045.84;;;9.30;100.00
49813;BME280;35706;52.100;5.056;2023-04-01T02:10:04;99045.84;;;9.30;100.00
49813;BME280;35706;52.100;5.056;2023-04-01T02:11:16;99051.09;;;9.30;100.00
49813;BME280;35706;52.100;5.056;2023-04-01T02:12:19;99044.38;;;9.28;100.00
49813;BME280;35706;52.100;5.056;2023-04-01T02:13:29;99043.06;;;9.32;100.00
49813;BME280;35706;52.100;5.056;2023-04-01T02:14:41;99039.25;;;9.34;100.00
49813;BME280;35706;52.100;5.056;2023-04-01T02:15:46;99052.38;;;9.34;100.00
49813;BME280;35706;52.100;5.056;2023-04-01T02:16:57;99048.75;;;9.35;100.00
49813;BME280;35706;52.100;5.056;2023-04-01T02:18:00;99051.09;;;9.30;100.00
49813;BME280;35706;52.100;5.056;2023-04-01T02:19:04;99055.50;;;9.30;100.00
49813;BME280;35706;52.100;5.056;2023-04-01T02:20:17;99064.69;;;9.34;100.00
49813;BME280;35706;52.100;5.056;2023-04-01T02:21:20;99061.41;;;9.32;100.00
49813;BME280;35706;52.100;5.056;2023-04-01T02:22:33;99071.72;;;9.33;100.00
49813;BME280;35706;52.100;5.056;2023-04-01T02:23:35;99057.97;;;9.31;100.00
49813;BME280;35706;52.100;5.056;2023-04-01T02:24:37;99064.69;;;9.34;100.00
49813;BME280;35706;52.100;5.056;2023-04-01T02:25:39;99059.44;;;9.34;100.00
49813;BME280;35706;52.100;5.056;2023-04-01T02:26:42;99064.19;;;9.30;100.00
49813;BME280;35706;52.100;5.056;2023-04-01T02:27:44;99060.28;;;9.26;100.00
49813;BME280;35706;52.100;5.056;2023-04-01T02:28:46;99058.31;;;9.28;100.00
49813;BME280;35706;52.100;5.056;2023-04-01T02:29:47;99068.31;;;9.25;100.00
49813;BME280;35706;52.100;5.056;2023-04-01T02:30:47;99063.53;;;9.28;100.00
49813;BME280;35706;52.100;5.056;2023-04-01T02:31:50;99064.53;;;9.27;100.00
49813;BME280;35706;52.100;5.056;2023-04-01T02:32:51;99070.72;;;9.34;100.00
49813;BME280;35706;52.100;5.056;2023-04-01T02:33:53;99058.63;;;9.33;100.00
49813;BME280;35706;52.100;5.056;2023-04-01T02:34:53;99071.88;;;9.32;100.00
49813;BME280;35706;52.100;5.056;2023-04-01T02:35:54;99072.41;;;9.27;100.00
49813;BME280;35706;52.100;5.056;2023-04-01T02:36:55;99073.72;;;9.31;100.00
49813;BME280;35706;52.100;5.056;2023-04-01T02:37:56;99068.47;;;9.31;100.00
49813;BME280;35706;52.100;5.056;2023-04-01T02:38:57;99072.41;;;9.27;100.00
49813;BME280;35706;52.100;5.056;2023-04-01T02:40:04;99080.94;;;9.29;100.00
49813;BME280;35706;52.100;5.056;2023-04-01T02:41:06;99073.22;;;9.28;100.00
49813;BME280;35706;52.100;5.056;2023-04-01T02:42:06;99069.59;;;9.29;100.00
49813;BME280;35706;52.100;5.056;2023-04-01T02:43:07;99077.81;;;9.26;100.00
49813;BME280;35706;52.100;5.056;2023-04-01T02:44:09;99072.56;;;9.26;100.00
49813;BME280;35706;52.100;5.056;2023-04-01T02:45:10;99076.66;;;9.28;100.00
49813;BME280;35706;52.100;5.056;2023-04-01T02:46:10;99077.47;;;9.29;100.00
49813;BME280;35706;52.100;5.056;2023-04-01T02:47:10;99074.84;;;9.29;100.00
49813;BME280;35706;52.100;5.056;2023-04-01T02:48:11;99077.28;;;9.30;100.00
49813;BME280;35706;52.100;5.056;2023-04-01T02:49:12;99077.66;;;9.27;100.00
49813;BME280;35706;52.100;5.056;2023-04-01T02:50:13;99079.44;;;9.27;100.00
49813;BME280;35706;52.100;5.056;2023-04-01T02:51:13;99080.72;;;9.31;100.00
49813;BME280;35706;52.100;5.056;2023-04-01T02:52:13;99075.69;;;9.29;100.00
49813;BME280;35706;52.100;5.056;2023-04-01T02:53:13;99081.38;;;9.33;100.00
49813;BME280;35706;52.100;5.056;2023-04-01T02:54:14;99076.50;;;9.30;100.00
49813;BME280;35706;52.100;5.056;2023-04-01T02:55:14;99082.03;;;9.35;100.00
49813;BME280;35706;52.100;5.056;2023-04-01T02:56:15;99087.63;;;9.32;100.00
49813;BME280;35706;52.100;5.056;2023-04-01T02:57:15;99082.22;;;9.33;100.00
49813;BME280;35706;52.100;5.056;2023-04-01T02:58:16;99085.47;;;9.35;100.00
49813;BME280;35706;52.100;5.056;2023-04-01T02:59:16;99085.47;;;9.35;100.00
49813;BME280;35706;52.100;5.056;2023-04-01T03:00:17;99085.94;;;9.39;100.00
49813;BME280;35706;52.100;5.056;2023-04-01T03:01:18;99092.34;;;9.36;100.00
49813;BME280;35706;52.100;5.056;2023-04-01T03:02:18;99088.06;;;9.35;100.00
49813;BME280;35706;52.100;5.056;2023-04-01T03:03:18;99093.69;;;9.32;100.00
49813;BME280;35706;52.100;5.056;2023-04-01T03:04:19;99088.44;;;9.32;100.00
49813;BME280;35706;52.100;5.056;2023-04-01T03:05:19;99092.34;;;9.36;100.00
49813;BME280;35706;52.100;5.056;2023-04-01T03:06:20;99094.97;;;9.36;100.00
49813;BME280;35706;52.100;5.056;2023-04-01T03:07:20;99096.78;;;9.36;100.00
49813;BME280;35706;52.100;5.056;2023-04-01T03:08:20;99098.25;;;9.38;100.00
49813;BME280;35706;52.100;5.056;2023-04-01T03:09:20;99101.66;;;9.39;100.00
49813;BME280;35706;52.100;5.056;2023-04-01T03:10:21;99099.22;;;9.37;100.00
49813;BME280;35706;52.100;5.056;2023-04-01T03:11:22;99106.91;;;9.39;100.00
49813;BME280;35706;52.100;5.056;2023-04-01T03:12:22;99104.94;;;9.41;100.00
49813;BME280;35706;52.100;5.056;2023-04-01T03:13:23;99109.22;;;9.42;100.00
49813;BME280;35706;52.100;5.056;2023-04-01T03:14:23;99108.38;;;9.42;100.00
49813;BME280;35706;52.100;5.056;2023-04-01T03:15:23;99108.22;;;9.43;100.00
49813;BME280;35706;52.100;5.056;2023-04-01T03:16:24;99109.88;;;9.44;100.00
49813;BME280;35706;52.100;5.056;2023-04-01T03:17:24;99111.00;;;9.42;100.00
49813;BME280;35706;52.100;5.056;2023-04-01T03:18:25;99107.88;;;9.46;100.00
49813;BME280;35706;52.100;5.056;2023-04-01T03:19:25;99113.47;;;9.43;100.00
49813;BME280;35706;52.100;5.056;2023-04-01T03:20:25;99116.25;;;9.42;100.00
49813;BME280;35706;52.100;5.056;2023-04-01T03:21:26;99117.53;;;9.46;100.00
49813;BME280;35706;52.100;5.056;2023-04-01T03:22:26;99120.81;;;9.48;100.00
49813;BME280;35706;52.100;5.056;2023-04-01T03:23:26;99120.66;;;9.49;100.00
49813;BME280;35706;52.100;5.056;2023-04-01T03:24:26;99131.63;;;9.53;100.00
49813;BME280;35706;52.100;5.056;2023-04-01T03:25:27;99128.16;;;9.52;100.00
49813;BME280;35706;52.100;5.056;2023-04-01T03:26:28;99124.06;;;9.50;100.00
49813;BME280;35706;52.100;5.056;2023-04-01T03:27:29;99129.31;;;9.50;100.00
49813;BME280;35706;52.100;5.056;2023-04-01T03:28:29;99126.69;;;9.50;100.00
49813;BME280;35706;52.100;5.056;2023-04-01T03:29:29;99122.47;;;9.49;100.00
49813;BME280;35706;52.100;5.056;2023-04-01T03:30:30;99131.63;;;9.53;100.00
49813;BME280;35706;52.100;5.056;2023-04-01T03:31:31;99132.44;;;9.53;100.00
49813;BME280;35706;52.100;5.056;2023-04-01T03:32:31;99130.28;;;9.57;100.00
49813;BME280;35706;52.100;5.056;2023-04-01T03:33:32;99131.09;;;9.57;100.00
49813;BME280;35706;52.100;5.056;2023-04-01T03:34:32;99135.19;;;9.60;100.00
49813;BME280;35706;52.100;5.056;2023-04-01T03:35:32;99130.28;;;9.57;100.00
49813;BME280;35706;52.100;5.056;2023-04-01T03:36:33;99135.19;;;9.60;100.00
49813;BME280;35706;52.100;5.056;2023-04-01T03:37:33;99137.00;;;9.60;100.00
49813;BME280;35706;52.100;5.056;2023-04-01T03:38:34;99139.09;;;9.64;100.00
49813;BME280;35706;52.100;5.056;2023-04-01T03:39:35;99141.06;;;9.62;100.00
49813;BME280;35706;52.100;5.056;2023-04-01T03:40:35;99142.88;;;9.62;100.00
49813;BME280;35706;52.100;5.056;2023-04-01T03:41:38;99140.09;;;9.63;100.00
49813;BME280;35706;52.100;5.056;2023-04-01T03:42:38;99144.81;;;9.68;100.00
49813;BME280;35706;52.100;5.056;2023-04-01T03:43:38;99145.28;;;9.71;100.00
49813;BME280;35706;52.100;5.056;2023-04-01T03:44:39;99151.53;;;9.70;100.00
49813;BME280;35706;52.100;5.056;2023-04-01T03:45:51;99146.13;;;9.72;100.00
49813;BME280;35706;52.100;5.056;2023-04-01T03:46:51;99149.56;;;9.72;100.00
49813;BME280;35706;52.100;5.056;2023-04-01T03:47:51;99147.56;;;9.74;100.00
49813;BME280;35706;52.100;5.056;2023-04-01T03:48:52;99150.38;;;9.73;100.00
49813;BME280;35706;52.100;5.056;2023-04-01T03:49:52;99152.34;;;9.71;100.00
49813;BME280;35706;52.100;5.056;2023-04-01T03:50:52;99150.19;;;9.74;100.00
49813;BME280;35706;52.100;5.056;2023-04-01T03:51:53;99152.66;;;9.76;100.00
49813;BME280;35706;52.100;5.056;2023-04-01T03:52:53;99159.69;;;9.75;100.00
49813;BME280;35706;52.100;5.056;2023-04-01T03:53:53;99160.34;;;9.77;100.00
49813;BME280;35706;52.100;5.056;2023-04-01T03:54:54;99167.41;;;9.77;100.00
49813;BME280;35706;52.100;5.056;2023-04-01T03:55:54;99158.88;;;9.75;100.00
49813;BME280;35706;52.100;5.056;2023-04-01T03:56:55;99162.78;;;9.79;100.00
49813;BME280;35706;52.100;5.056;2023-04-01T03:57:58;99168.22;;;9.77;100.00
49813;BME280;35706;52.100;5.056;2023-04-01T03:59:01;99161.81;;;9.80;100.00
49813;BME280;35706;52.100;5.056;2023-04-01T04:00:02;99171.31;;;9.81;100.00
49813;BME280;35706;52.100;5.056;2023-04-01T04:01:02;99168.84;;;9.79;100.00
49813;BME280;35706;52.100;5.056;2023-04-01T04:02:03;99172.97;;;9.82;100.00
49813;BME280;35706;52.100;5.056;2023-04-01T04:03:03;99167.53;;;9.84;100.00
49813;BME280;35706;52.100;5.056;2023-04-01T04:04:03;99175.22;;;9.85;100.00
49813;BME280;35706;52.100;5.056;2023-04-01T04:05:04;99169.34;;;9.83;100.00
49813;BME280;35706;52.100;5.056;2023-04-01T04:06:11;99176.00;;;9.94;100.00
49813;BME280;35706;52.100;5.056;2023-04-01T04:07:12;99174.94;;;9.80;100.00
49813;BME280;35706;52.100;5.056;2023-04-01T04:08:12;99172.31;;;9.80;100.00
49813;BME280;35706;52.100;5.056;2023-04-01T04:09:12;99177.72;;;9.78;100.00
49813;BME280;35706;52.100;5.056;2023-04-01T04:10:12;99181.97;;;9.79;100.00
49813;BME280;35706;52.100;5.056;2023-04-01T04:11:13;99181.00;;;9.81;100.00
49813;BME280;35706;52.100;5.056;2023-04-01T04:12:14;99187.22;;;9.79;100.00
49813;BME280;35706;52.100;5.056;2023-04-01T04:13:14;99182.81;;;9.80;100.00
49813;BME280;35706;52.100;5.056;2023-04-01T04:14:15;99188.06;;;9.80;100.00
49813;BME280;35706;52.100;5.056;2023-04-01T04:15:15;99189.03;;;9.79;100.00
49813;BME280;35706;52.100;5.056;2023-04-01T04:16:17;99197.38;;;9.83;100.00
49813;BME280;35706;52.100;5.056;2023-04-01T04:17:17;99194.59;;;9.84;100.00
49813;BME280;35706;52.100;5.056;2023-04-01T04:18:17;99188.34;;;9.85;100.00
49813;BME280;35706;52.100;5.056;2023-04-01T04:19:18;99190.16;;;9.85;100.00
49813;BME280;35706;52.100;5.056;2023-04-01T04:20:18;99192.28;;;9.89;100.00
49813;BME280;35706;52.100;5.056;2023-04-01T04:21:18;99201.13;;;9.88;100.00
49813;BME280;35706;52.100;5.056;2023-04-01T04:22:19;99203.94;;;9.87;100.00
49813;BME280;35706;52.100;5.056;2023-04-01T04:23:19;99211.63;;;9.88;100.00
49813;BME280;35706;52.100;5.056;2023-04-01T04:24:20;99209.34;;;9.85;100.00
49813;BME280;35706;52.100;5.056;2023-04-01T04:25:20;99205.91;;;9.85;100.00
49813;BME280;35706;52.100;5.056;2023-04-01T04:26:20;99208.34;;;9.86;100.00
49813;BME280;35706;52.100;5.056;2023-04-01T04:27:20;99214.25;;;9.88;100.00
49813;BME280;35706;52.100;5.056;2023-04-01T04:28:21;99207.22;;;9.89;100.00
49813;BME280;35706;52.100;5.056;2023-04-01T04:29:21;99215.41;;;9.86;100.00
49813;BME280;35706;52.100;5.056;2023-04-01T04:30:22;99220.66;;;9.86;100.00
49813;BME280;35706;52.100;5.056;2023-04-01T04:31:24;99218.50;;;9.89;100.00
49813;BME280;35706;52.100;5.056;2023-04-01T04:32:25;99224.25;;;9.93;100.00
49813;BME280;35706;52.100;5.056;2023-04-01T04:33:25;99223.59;;;9.91;100.00
49813;BME280;35706;52.100;5.056;2023-04-01T04:34:25;99223.41;;;9.92;100.00
49813;BME280;35706;52.100;5.056;2023-04-01T04:35:26;99218.50;;;9.89;100.00
49813;BME280;35706;52.100;5.056;2023-04-01T04:36:27;99230.63;;;9.90;100.00
49813;BME280;35706;52.100;5.056;2023-04-01T04:37:27;99228.53;;;9.86;100.00
49813;BME280;35706;52.100;5.056;2023-04-01T04:38:28;99229.53;;;9.85;100.00
49813;BME280;35706;52.100;5.056;2023-04-01T04:39:28;99228.19;;;9.89;100.00
49813;BME280;35706;52.100;5.056;2023-04-01T04:40:29;99233.44;;;9.89;100.00
49813;BME280;35706;52.100;5.056;2023-04-01T04:41:29;99225.56;;;9.89;100.00
49813;BME280;35706;52.100;5.056;2023-04-01T04:42:29;99239.16;;;9.92;100.00
49813;BME280;35706;52.100;5.056;2023-04-01T04:43:30;99244.59;;;9.91;100.00
49813;BME280;35706;52.100;5.056;2023-04-01T04:44:30;99241.97;;;9.91;100.00
49813;BME280;35706;52.100;5.056;2023-04-01T04:45:30;99244.91;;;9.88;100.00
49813;BME280;35706;52.100;5.056;2023-04-01T04:46:31;99243.09;;;9.88;100.00
49813;BME280;35706;52.100;5.056;2023-04-01T04:47:32;99244.91;;;9.88;100.00
49813;BME280;35706;52.100;5.056;2023-04-01T04:48:32;99248.34;;;9.88;100.00
49813;BME280;35706;52.100;5.056;2023-04-01T04:49:32;99247.72;;;9.86;100.00
49813;BME280;35706;52.100;5.056;2023-04-01T04:50:34;99246.09;;;9.85;100.00
49813;BME280;35706;52.100;5.056;2023-04-01T04:51:34;99249.19;;;9.89;100.00
49813;BME280;35706;52.100;5.056;2023-04-01T04:52:35;99256.72;;;9.92;100.00
49813;BME280;35706;52.100;5.056;2023-04-01T04:53:36;99251.16;;;9.87;100.00
49813;BME280;35706;52.100;5.056;2023-04-01T04:54:36;99251.16;;;9.87;100.00
49813;BME280;35706;52.100;5.056;2023-04-01T04:55:36;99263.44;;;9.86;100.00
49813;BME280;35706;52.100;5.056;2023-04-01T04:56:37;99259.69;;;9.89;100.00
49813;BME280;35706;52.100;5.056;2023-04-01T04:57:37;99264.94;;;9.89;100.00
49813;BME280;35706;52.100;5.056;2023-04-01T04:58:38;99268.22;;;9.91;100.00
49813;BME280;35706;52.100;5.056;2023-04-01T04:59:39;99271.81;;;9.90;100.00
49813;BME280;35706;52.100;5.056;2023-04-01T05:00:39;99271.97;;;9.88;100.00
49813;BME280;35706;52.100;5.056;2023-04-01T05:01:39;99276.25;;;9.89;100.00
49813;BME280;35706;52.100;5.056;2023-04-01T05:02:40;99279.69;;;9.90;100.00
49813;BME280;35706;52.100;5.056;2023-04-01T05:03:41;99281.16;;;9.92;100.00
49813;BME280;35706;52.100;5.056;2023-04-01T05:04:42;99281.78;;;9.94;100.00
49813;BME280;35706;52.100;5.056;2023-04-01T05:05:51;99278.38;;;9.94;100.00
49813;BME280;35706;52.100;5.056;2023-04-01T05:06:52;99282.97;;;9.92;100.00
49813;BME280;35706;52.100;5.056;2023-04-01T05:07:52;99285.59;;;9.92;100.00
49813;BME280;35706;52.100;5.056;2023-04-01T05:08:52;99285.59;;;9.92;100.00
49813;BME280;35706;52.100;5.056;2023-04-01T05:09:53;99294.09;;;9.94;100.00
49813;BME280;35706;52.100;5.056;2023-04-01T05:10:53;99283.97;;;9.91;100.00
49813;BME280;35706;52.100;5.056;2023-04-01T05:11:53;99286.59;;;9.91;100.00
49813;BME280;35706;52.100;5.056;2023-04-01T05:12:54;99287.88;;;9.95;100.00
49813;BME280;35706;52.100;5.056;2023-04-01T05:13:54;99292.13;;;9.96;100.00
49813;BME280;35706;52.100;5.056;2023-04-01T05:14:55;99294.09;;;9.94;100.00
49813;BME280;35706;52.100;5.056;2023-04-01T05:15:55;99294.91;;;9.94;100.00
49813;BME280;35706;52.100;5.056;2023-04-01T05:16:56;99292.94;;;9.96;100.00
49813;BME280;35706;52.100;5.056;2023-04-01T05:17:56;99300.81;;;9.96;100.00
49813;BME280;35706;52.100;5.056;2023-04-01T05:18:56;99294.91;;;9.94;100.00
49813;BME280;35706;52.100;5.056;2023-04-01T05:19:57;99300.16;;;9.94;100.00
49813;BME280;35706;52.100;5.056;2023-04-01T05:20:57;99301.00;;;9.95;100.00
49813;BME280;35706;52.100;5.056;2023-04-01T05:21:57;99307.72;;;9.97;100.00
49813;BME280;35706;52.100;5.056;2023-04-01T05:22:59;99309.53;;;9.97;100.00
49813;BME280;35706;52.100;5.056;2023-04-01T05:23:59;99311.50;;;9.95;100.00
49813;BME280;35706;52.100;5.056;2023-04-01T05:24:59;99312.47;;;9.94;100.00
49813;BME280;35706;52.100;5.056;2023-04-01T05:26:07;99317.72;;;9.94;100.00
49813;BME280;35706;52.100;5.056;2023-04-01T05:27:08;99311.03;;;9.91;100.00
49813;BME280;35706;52.100;5.056;2023-04-01T05:28:09;99322.50;;;9.90;100.00
49813;BME280;35706;52.100;5.056;2023-04-01T05:29:09;99320.34;;;9.94;100.00
49813;BME280;35706;52.100;5.056;2023-04-01T05:30:10;99319.53;;;9.93;100.00
49813;BME280;35706;52.100;5.056;2023-04-01T05:31:11;99325.13;;;9.90;100.00
49813;BME280;35706;52.100;5.056;2023-04-01T05:32:11;99327.25;;;9.95;100.00
49813;BME280;35706;52.100;5.056;2023-04-01T05:33:12;99328.06;;;9.95;100.00
49813;BME280;35706;52.100;5.056;2023-04-01T05:34:13;99333.84;;;9.91;100.00
49813;BME280;35706;52.100;5.056;2023-04-01T05:35:13;99332.34;;;9.88;100.00
49813;BME280;35706;52.100;5.056;2023-04-01T05:36:15;99334.63;;;9.91;100.00
49813;BME280;35706;52.100;5.056;2023-04-01T05:37:16;99333.84;;;9.91;100.00
49813;BME280;35706;52.100;5.056;2023-04-01T05:38:16;99338.56;;;9.95;100.00
49813;BME280;35706;52.100;5.056;2023-04-01T05:39:16;99339.25;;;9.89;100.00
49813;BME280;35706;52.100;5.056;2023-04-01T05:40:17;99341.69;;;9.91;100.00
49813;BME280;35706;52.100;5.056;2023-04-01T05:41:17;99337.13;;;9.85;100.00
49813;BME280;35706;52.100;5.056;2023-04-01T05:42:17;99339.91;;;9.83;100.00
49813;BME280;35706;52.100;5.056;2023-04-01T05:43:18;99338.09;;;9.84;100.00
49813;BME280;35706;52.100;5.056;2023-04-01T05:44:18;99345.81;;;9.85;100.00